Time;durP1;ratioP1;P1;durP2;ratioP2;P2;SDS_P1;SDS_P2;PMS_P1;PMS_P2;Temp;Humidity;BMP_temperature;BMP_pressure;BME280_temperature;BME280_humidity;BME280_pressure;Samples;Min_cycle;Max_cycle;Signal;HPM_P1;HPM_P2
2022/05/20 00:01:14;;;;;;;5.25;3.88;;;20.90;72.00;;;21.55;55.65;98144.09;5007858;28;20046;-50
2022/05/20 00:03:42;;;;;;;5.88;3.80;;;21.00;71.90;;;21.55;55.99;98148.69;5007571;28;20046;-53
2022/05/20 00:06:10;;;;;;;7.05;4.45;;;21.00;71.70;;;21.51;56.24;98147.47;5006664;28;20068;-52
2022/05/20 00:08:39;;;;;;;7.32;4.60;;;21.10;71.70;;;21.49;56.51;98141.44;5007413;28;20057;-53
2022/05/20 00:11:07;;;;;;;6.07;4.10;;;21.00;71.90;;;21.47;56.28;98136.22;5007682;28;20054;-53
2022/05/20 00:13:35;;;;;;;6.65;4.57;;;21.00;73.10;;;21.42;56.39;98130.59;5007346;28;20060;-53
2022/05/20 00:16:03;;;;;;;7.05;4.32;;;20.90;72.60;;;21.33;56.51;98127.34;5007817;28;20062;-52
2022/05/20 00:18:31;;;;;;;6.72;4.10;;;20.80;73.10;;;21.32;56.78;98122.13;5006191;28;20148;-50
2022/05/20 00:20:59;;;;;;;6.63;4.32;;;20.80;73.00;;;21.28;56.67;98124.44;5008293;28;20283;-53
2022/05/20 00:23:27;;;;;;;5.82;4.22;;;20.70;73.20;;;21.27;56.58;98120.09;5006117;28;20057;-53
2022/05/20 00:25:55;;;;;;;7.88;4.38;;;20.80;73.10;;;21.27;56.67;98128.22;5006384;28;20053;-52
2022/05/20 00:28:27;;;;;;;10.48;4.97;;;20.80;72.80;;;21.28;57.25;98124.44;5007944;28;20053;-53
2022/05/20 00:31:06;;;;;;;5.32;4.20;;;20.90;73.00;;;21.27;57.05;98130.06;5005971;28;20061;-50
2022/05/20 00:33:37;;;;;;;10.48;4.50;;;20.80;73.20;;;21.25;57.17;98119.50;5006781;28;20237;-54
2022/05/20 00:36:06;;;;;;;7.43;4.65;;;20.80;73.10;;;21.24;57.33;98120.53;5007439;28;20052;-50
2022/05/20 00:38:35;;;;;;;5.88;4.75;;;20.80;73.60;;;21.20;57.46;98120.13;5005400;28;20057;-53
2022/05/20 00:41:04;;;;;;;7.47;4.85;;;20.70;74.20;;;21.17;57.36;98125.13;5006167;28;20050;-52
2022/05/20 00:43:40;;;;;;;10.55;4.78;;;20.60;74.60;;;21.13;57.65;98124.78;5021311;28;20140;-51
2022/05/20 00:46:15;;;;;;;5.63;4.20;;;20.60;75.30;;;21.11;57.79;98124.16;5007094;28;20400;-50
2022/05/20 00:48:43;;;;;;;7.63;4.68;;;20.60;74.40;;;21.07;57.37;98119.38;5006629;28;20337;-49
2022/05/20 00:51:23;;;;;;;6.97;5.43;;;20.70;73.80;;;21.07;57.58;98116.66;5006468;28;20113;-54
2022/05/20 00:53:56;;;;;;;6.38;4.85;;;20.70;74.00;;;21.05;57.75;98114.19;5004988;28;20046;-53
2022/05/20 00:56:36;;;;;;;6.35;5.25;;;20.60;74.10;;;20.90;57.93;98110.94;5006478;28;20080;-49
2022/05/20 00:59:08;;;;;;;5.97;5.28;;;20.30;76.20;;;20.82;58.36;98112.00;5006212;28;20332;-49
2022/05/20 01:01:36;;;;;;;6.57;5.10;;;20.20;76.30;;;20.76;58.07;98111.03;5004916;28;20352;-51
2022/05/20 01:04:05;;;;;;;6.53;5.93;;;20.20;76.00;;;20.76;58.00;98111.03;5006453;28;20272;-53
2022/05/20 01:06:33;;;;;;;6.00;4.57;;;20.20;75.80;;;20.78;57.93;98106.22;5006421;28;20052;-52
2022/05/20 01:09:01;;;;;;;7.03;4.35;;;20.30;75.10;;;20.80;58.07;98105.97;5006371;28;20067;-52
2022/05/20 01:11:29;;;;;;;6.93;5.47;;;20.30;74.70;;;20.78;58.12;98106.22;5006130;28;20053;-53
2022/05/20 01:13:57;;;;;;;6.28;5.03;;;20.40;74.60;;;20.78;58.07;98105.38;5005936;28;20049;-52
2022/05/20 01:16:25;;;;;;;7.70;4.43;;;20.40;74.50;;;20.80;58.08;98103.28;5006414;28;20112;-50
2022/05/20 01:18:53;;;;;;;8.68;4.65;;;20.40;74.30;;;20.79;58.14;98098.94;5007118;28;20241;-51
2022/05/20 01:21:22;;;;;;;7.25;5.38;;;20.40;74.30;;;20.77;58.42;98098.31;5006261;28;20251;-49
2022/05/20 01:23:50;;;;;;;7.53;6.15;;;20.40;74.20;;;20.78;58.36;98100.81;5005711;28;20236;-51
2022/05/20 01:26:20;;;;;;;8.68;5.70;;;20.50;74.10;;;20.74;58.39;98094.16;5007652;28;20584;-52
2022/05/20 01:28:47;;;;;;;7.60;4.72;;;20.40;74.30;;;20.71;58.35;98094.59;5006548;28;20054;-52
2022/05/20 01:31:16;;;;;;;5.53;5.00;;;20.40;74.90;;;20.71;58.29;98101.88;5007090;28;20146;-50
2022/05/20 01:33:49;;;;;;;8.50;5.15;;;20.30;74.70;;;20.76;58.37;98099.34;5004165;28;20049;-54
2022/05/20 01:36:24;;;;;;;7.97;5.20;;;20.40;74.50;;;20.83;58.17;98092.84;5007308;28;20072;-50
2022/05/20 01:38:53;;;;;;;6.20;4.72;;;20.50;74.30;;;20.88;58.06;98085.97;5005241;28;20049;-51
2022/05/20 01:41:37;;;;;;;7.75;5.07;;;20.50;73.70;;;20.89;58.10;98088.47;5004279;28;20224;-51
2022/05/20 01:44:35;;;;;;;6.25;4.50;;;20.60;73.90;;;20.87;57.94;98093.25;5006527;28;20062;-50
2022/05/20 01:47:22;;;;;;;6.85;5.22;;;20.60;74.00;;;20.88;57.87;98094.09;5006887;28;20064;-52
2022/05/20 01:50:12;;;;;;;8.88;5.82;;;20.50;73.70;;;20.86;58.15;98086.22;5005287;28;20050;-54
2022/05/20 01:53:02;;;;;;;6.10;5.50;;;20.50;74.30;;;20.83;58.33;98089.34;5020776;28;20062;-54
2022/05/20 01:55:42;;;;;;;7.20;5.30;;;20.40;73.90;;;20.79;58.03;98088.94;5006909;28;20425;-52
2022/05/20 01:58:33;;;;;;;7.07;5.40;;;20.40;74.60;;;20.79;58.19;98091.63;4987913;28;20058;-50
2022/05/20 02:01:07;;;;;;;16.73;6.32;;;20.40;74.50;;;20.78;58.09;98086.44;5004604;28;20305;-51
2022/05/20 02:03:46;;;;;;;7.13;5.40;;;20.40;74.50;;;20.72;58.61;98093.53;5003527;28;20270;-53
2022/05/20 02:06:29;;;;;;;7.82;5.05;;;20.40;75.00;;;20.72;58.82;98090.00;5007027;28;20045;-49
2022/05/20 02:09:07;;;;;;;8.90;5.55;;;20.40;75.10;;;20.72;58.77;98085.41;5008788;28;20073;-53
2022/05/20 02:11:51;;;;;;;5.90;5.30;;;20.40;74.70;;;20.74;58.75;98087.91;5008316;28;20061;-51
2022/05/20 02:14:31;;;;;;;8.52;5.50;;;20.40;75.20;;;20.75;58.71;98079.59;5007882;28;20215;-53
2022/05/20 02:17:26;;;;;;;9.05;5.07;;;20.50;75.20;;;20.72;58.60;98088.13;5010459;28;20056;-54
2022/05/20 02:20:19;;;;;;;9.30;5.63;;;20.40;75.20;;;20.73;58.88;98092.50;5009734;28;20386;-52
2022/05/20 02:22:55;;;;;;;7.47;6.10;;;20.40;74.90;;;20.71;58.61;98083.78;5007948;28;20053;-52
2022/05/20 02:25:32;;;;;;;6.85;5.82;;;20.40;75.20;;;20.74;58.75;98087.91;5009502;28;20049;-51
2022/05/20 02:28:15;;;;;;;8.55;5.32;;;20.40;75.00;;;20.73;58.74;98080.84;5008031;28;20054;-55
2022/05/20 02:30:44;;;;;;;6.03;5.20;;;20.40;75.00;;;20.75;58.68;98084.19;5009915;28;20227;-51
2022/05/20 02:33:20;;;;;;;6.45;5.60;;;20.40;74.70;;;20.72;59.10;98080.00;5006927;28;20057;-53
2022/05/20 02:35:48;;;;;;;6.70;5.20;;;20.50;74.80;;;20.69;59.18;98082.34;5009954;28;20267;-53
2022/05/20 02:38:23;;;;;;;6.07;5.05;;;20.40;74.70;;;20.68;59.26;98083.38;5008252;28;20050;-50
2022/05/20 02:40:53;;;;;;;7.32;5.13;;;20.40;75.20;;;20.66;59.22;98075.47;5009215;28;20046;-52
2022/05/20 02:43:22;;;;;;;6.85;5.40;;;20.40;75.00;;;20.67;59.33;98071.72;5007522;28;20279;-49
2022/05/20 02:45:52;;;;;;;7.85;6.03;;;20.40;75.00;;;20.64;59.48;98072.16;5009265;28;20053;-53
2022/05/20 02:48:22;;;;;;;7.85;5.93;;;20.40;75.20;;;20.64;59.30;98067.56;5008126;28;20344;-53
2022/05/20 02:50:49;;;;;;;8.75;6.10;;;20.40;75.10;;;20.63;59.10;98074.03;5007349;28;20054;-51
2022/05/20 02:53:18;;;;;;;7.40;5.70;;;20.40;75.00;;;20.70;59.06;98067.75;5009086;28;20050;-52
2022/05/20 02:55:46;;;;;;;9.82;5.72;;;20.50;74.60;;;20.74;58.86;98071.69;5007944;28;20057;-53
2022/05/20 03:04:12;;;;;;;5.95;5.35;;;20.70;73.80;;;20.92;58.19;98081.78;5007793;28;20049;-52
2022/05/20 03:06:47;;;;;;;9.82;6.55;;;20.70;73.30;;;20.87;58.44;98078.91;5006731;28;20046;-50
2022/05/20 03:09:18;;;;;;;8.63;5.20;;;20.60;73.50;;;20.85;58.56;98084.53;5007203;28;20250;-51
2022/05/20 03:11:46;;;;;;;9.80;6.38;;;20.60;73.30;;;20.84;58.46;98085.59;5009076;28;20062;-51
2022/05/20 03:14:18;;;;;;;8.63;5.95;;;20.60;73.40;;;20.84;58.18;98088.31;5008278;28;20053;-52
2022/05/20 03:16:47;;;;;;;7.50;6.70;;;20.60;73.20;;;20.80;58.21;98079.78;5007985;28;20049;-51
2022/05/20 03:19:15;;;;;;;7.85;6.20;;;20.50;73.60;;;20.78;58.10;98081.88;5009168;28;20056;-51
2022/05/20 03:21:43;;;;;;;7.60;5.63;;;20.40;73.70;;;20.76;58.36;98081.25;5008658;28;20065;-54
2022/05/20 03:24:12;;;;;;;5.80;5.22;;;20.40;74.10;;;20.72;58.36;98077.31;5009379;28;20283;-48
2022/05/20 03:26:41;;;;;;;7.10;6.30;;;20.30;74.20;;;20.71;58.28;98086.47;5009406;28;20383;-50
2022/05/20 03:29:09;;;;;;;7.40;6.53;;;20.30;74.30;;;20.69;58.33;98088.56;5008914;28;20058;-48
2022/05/20 03:31:38;;;;;;;6.95;6.10;;;20.30;74.20;;;20.69;58.34;98082.34;5007664;28;20064;-53
2022/05/20 03:34:08;;;;;;;7.65;6.30;;;20.30;74.30;;;20.65;58.45;98088.16;5008432;28;20234;-50
2022/05/20 03:36:46;;;;;;;9.57;6.20;;;20.20;74.50;;;20.63;58.51;98086.72;5007390;28;20250;-52
2022/05/20 03:39:19;;;;;;;8.38;6.88;;;20.20;74.60;;;20.57;58.31;98087.53;5005412;28;20061;-52
2022/05/20 03:41:48;;;;;;;7.47;6.43;;;20.20;74.60;;;20.54;58.46;98090.69;5008063;28;20053;-51
2022/05/20 03:44:17;;;;;;;8.40;6.50;;;20.10;74.80;;;20.50;58.70;98086.75;5006341;28;20050;-48
2022/05/20 03:46:51;;;;;;;7.80;6.93;;;20.10;74.90;;;20.49;58.89;98087.78;5008575;28;20099;-53
2022/05/20 03:49:23;;;;;;;9.80;6.35;;;20.10;75.40;;;20.49;59.02;98087.78;5008337;28;20049;-51
2022/05/20 03:51:52;;;;;;;8.05;6.35;;;20.10;75.20;;;20.47;58.88;98096.09;5007928;28;20050;-51
2022/05/20 03:54:29;;;;;;;8.98;6.90;;;20.10;75.90;;;20.48;58.99;98102.38;5007909;28;20427;-49
2022/05/20 03:56:57;;;;;;;8.60;7.18;;;20.10;75.70;;;20.45;58.65;98093.63;5007210;28;20049;-49
2022/05/20 03:59:26;;;;;;;8.60;7.13;;;20.00;75.50;;;20.43;58.91;98094.88;5008610;28;20050;-51
2022/05/20 04:01:57;;;;;;;6.97;6.28;;;20.00;75.60;;;20.40;59.14;98093.44;5007441;28;20268;-53
2022/05/20 04:04:31;;;;;;;8.50;5.93;;;20.00;75.70;;;20.38;58.90;98089.28;5008336;28;20053;-50
2022/05/20 04:07:02;;;;;;;8.30;6.80;;;19.90;76.10;;;20.34;59.21;98088.88;5007588;28;20046;-50
2022/05/20 04:09:30;;;;;;;10.07;6.63;;;19.90;76.20;;;20.29;59.05;98091.38;5008049;28;20233;-53
2022/05/20 04:12:01;;;;;;;8.68;6.45;;;19.90;75.80;;;20.21;59.49;98088.94;5007528;28;20046;-52
2022/05/20 04:14:30;;;;;;;9.38;6.78;;;20.00;75.80;;;20.21;59.60;98075.41;5008224;28;20237;-52
2022/05/20 04:17:04;;;;;;;11.88;6.13;;;19.90;76.10;;;20.22;59.70;98077.91;5007642;28;20060;-50
2022/05/20 04:19:34;;;;;;;8.65;6.57;;;19.80;76.40;;;20.21;59.16;98078.94;5008318;28;20046;-54
2022/05/20 04:22:08;;;;;;;8.90;6.88;;;19.80;76.50;;;20.19;59.54;98072.91;5008158;28;20048;-54
2022/05/20 04:24:37;;;;;;;9.20;6.68;;;19.80;76.70;;;20.15;59.77;98074.38;5006465;28;20056;-48
2022/05/20 04:27:05;;;;;;;8.63;6.65;;;19.70;77.00;;;20.12;59.66;98071.28;5007787;28;20444;-54
2022/05/20 04:29:34;;;;;;;11.25;8.10;;;19.70;77.10;;;20.14;59.84;98074.59;5007768;28;20050;-51
2022/05/20 04:32:03;;;;;;;13.02;7.32;;;19.70;77.20;;;20.15;59.85;98068.97;5007778;28;20049;-52
2022/05/20 04:34:31;;;;;;;8.23;6.90;;;19.70;77.20;;;20.16;59.55;98070.66;5009134;28;20065;-52
2022/05/20 04:36:59;;;;;;;10.80;9.48;;;19.80;77.00;;;20.14;59.93;98070.03;5007170;28;20290;-51
2022/05/20 04:39:27;;;;;;;11.30;8.05;;;19.80;77.10;;;20.15;59.93;98073.56;5006066;28;20256;-54
2022/05/20 04:47:31;;;;;;;9.27;6.75;;;19.80;77.50;;;20.15;60.08;98068.97;5007639;28;20049;-53
2022/05/20 04:49:59;;;;;;;11.05;7.47;;;19.80;77.60;;;20.18;60.07;98063.16;5007294;28;20055;-51
2022/05/20 04:52:27;;;;;;;7.40;6.05;;;19.90;77.40;;;20.24;60.12;98066.88;5007054;28;20057;-49
2022/05/20 04:54:55;;;;;;;7.95;6.30;;;20.00;77.00;;;20.25;60.44;98066.66;5007054;28;20063;-50
2022/05/20 04:57:50;;;;;;;7.05;6.35;;;20.10;76.60;;;20.32;60.29;98068.53;5006823;28;20417;-53
2022/05/20 05:00:29;;;;;;;14.13;6.97;;;20.20;76.80;;;20.34;60.43;98063.72;5007590;28;20060;-50
2022/05/20 05:02:57;;;;;;;9.73;6.95;;;20.10;76.80;;;20.37;60.41;98061.41;5006968;28;20053;-51
2022/05/20 05:05:29;;;;;;;8.48;6.15;;;20.20;76.80;;;20.43;60.26;98063.28;5006477;28;20054;-53
2022/05/20 05:07:58;;;;;;;9.77;6.68;;;20.30;76.50;;;20.48;60.09;98064.50;5006995;28;20081;-50
2022/05/20 05:10:30;;;;;;;9.18;6.40;;;20.40;76.40;;;20.52;60.26;98061.16;5007634;28;20053;-50
2022/05/20 05:13:00;;;;;;;11.55;6.15;;;20.40;76.20;;;20.56;60.01;98059.66;5006901;28;20060;-53
2022/05/20 05:15:28;;;;;;;7.43;6.65;;;20.50;76.80;;;20.63;60.08;98070.50;5007824;28;20054;-50
2022/05/20 05:18:21;;;;;;;6.90;6.20;;;20.60;75.60;;;20.68;60.32;98059.84;5005588;28;20061;-53
2022/05/20 05:20:51;;;;;;;7.45;5.80;;;20.70;75.40;;;20.77;59.83;98066.66;5008176;28;20063;-51
2022/05/20 05:23:20;;;;;;;8.13;6.47;;;20.70;75.00;;;20.83;59.59;98073.09;5006603;28;20054;-52
2022/05/20 05:25:49;;;;;;;8.48;5.90;;;20.80;74.40;;;20.89;59.77;98074.94;5005788;28;20360;-53
2022/05/20 05:28:16;;;;;;;6.57;5.82;;;20.90;74.20;;;20.90;59.31;98083.88;5006800;28;20057;-54
2022/05/20 05:30:47;;;;;;;7.82;5.15;;;20.90;73.90;;;20.94;59.34;98082.41;5005932;28;20251;-52
2022/05/20 05:33:17;;;;;;;9.65;6.60;;;20.90;73.70;;;20.95;59.47;98084.06;5006469;28;20050;-54
2022/05/20 05:35:45;;;;;;;8.40;5.70;;;20.90;73.30;;;20.99;59.04;98082.56;5005185;28;20052;-52
2022/05/20 05:38:13;;;;;;;7.25;6.00;;;21.00;73.20;;;21.07;59.33;98085.00;5007688;28;20050;-53
2022/05/20 05:40:41;;;;;;;6.55;5.50;;;21.10;73.00;;;21.12;59.26;98090.63;5009903;28;20044;-51
2022/05/20 05:43:09;;;;;;;6.82;5.43;;;21.10;72.60;;;21.17;58.62;98081.81;5009766;28;20054;-49
2022/05/20 05:45:38;;;;;;;6.15;5.57;;;21.20;72.50;;;21.22;58.75;98085.53;5010656;28;20208;-50
2022/05/20 05:48:09;;;;;;;7.07;5.40;;;21.30;72.10;;;21.30;58.35;98078.22;5010443;28;20048;-54
2022/05/20 05:50:40;;;;;;;7.90;5.72;;;21.40;71.90;;;21.35;58.23;98072.97;5009326;28;20054;-51
2022/05/20 05:53:14;;;;;;;6.90;5.38;;;21.40;71.70;;;21.39;58.13;98077.72;5010897;28;20046;-53
2022/05/20 05:55:48;;;;;;;9.00;5.32;;;21.40;71.40;;;21.43;58.34;98076.25;5011346;28;20053;-53
2022/05/20 05:58:16;;;;;;;5.50;4.90;;;21.50;71.10;;;21.46;57.89;98072.28;5009689;28;20053;-49
2022/05/20 06:00:44;;;;;;;6.47;4.80;;;21.50;70.70;;;21.50;57.58;98073.50;5009248;28;20054;-51
2022/05/20 06:03:15;;;;;;;5.13;4.63;;;21.60;70.30;;;21.52;57.44;98075.97;5010661;28;20057;-51
2022/05/20 06:05:45;;;;;;;7.10;4.80;;;21.60;70.20;;;21.56;57.58;98077.22;5010136;28;20056;-54
2022/05/20 06:08:15;;;;;;;4.75;4.22;;;21.70;70.30;;;21.59;57.55;98077.56;5009740;28;20054;-54
2022/05/20 06:10:44;;;;;;;5.75;4.90;;;21.70;69.70;;;21.65;57.04;98078.56;5008971;28;20054;-53
2022/05/20 06:13:12;;;;;;;7.57;4.82;;;21.70;69.50;;;21.67;56.72;98078.34;5010166;28;20083;-53
2022/05/20 06:15:40;;;;;;;5.30;4.78;;;21.80;68.80;;;21.70;56.77;98072.50;5008723;28;20375;-52
2022/05/20 06:18:08;;;;;;;7.55;4.53;;;21.80;68.70;;;21.73;56.26;98081.03;5009011;28;20046;-55
2022/05/20 06:20:37;;;;;;;5.18;4.47;;;21.80;68.00;;;21.77;55.88;98081.38;5010154;28;20056;-55
2022/05/20 06:23:05;;;;;;;8.05;4.60;;;21.90;67.50;;;21.79;55.78;98074.72;5009215;28;20054;-54
2022/05/20 06:25:33;;;;;;;6.72;4.32;;;21.90;67.30;;;21.81;55.70;98072.59;5010033;28;20196;-57
2022/05/20 06:28:13;;;;;;;5.63;4.30;;;22.00;67.20;;;21.87;55.91;98078.16;5009673;28;20050;-52
2022/05/20 06:30:42;;;;;;;9.43;4.55;;;22.00;67.10;;;21.92;55.71;98073.72;5010189;28;20045;-52
2022/05/20 06:33:10;;;;;;;5.80;4.55;;;22.10;67.30;;;21.96;55.52;98069.53;5010113;28;20062;-55
2022/05/20 06:41:19;;;;;;;7.10;4.55;;;22.30;65.90;;;22.19;54.84;98066.16;5030441;28;20233;-52
2022/05/20 06:43:48;;;;;;;4.75;4.35;;;22.40;65.20;;;22.29;54.78;98070.25;5009649;28;20068;-52
2022/05/20 06:46:16;;;;;;;4.53;4.00;;;22.60;65.30;;;22.38;54.30;98064.31;5007649;28;20053;-51
2022/05/20 06:48:57;;;;;;;7.35;4.70;;;22.70;64.30;;;22.50;54.39;98066.25;5008157;28;20054;-55
2022/05/20 06:51:35;;;;;;;5.88;4.20;;;22.80;63.40;;;22.60;54.54;98064.66;5007861;28;20065;-55
2022/05/20 06:54:08;;;;;;;5.63;4.20;;;22.90;64.20;;;22.71;53.95;98065.75;5010152;28;20068;-55
2022/05/20 06:56:37;;;;;;;;;;;23.00;63.90;;;22.76;53.50;98060.50;5009324;28;20164;-54
2022/05/20 06:59:07;;;;;;;6.53;4.53;;;23.00;62.20;;;22.92;53.98;98059.00;5008191;28;19923;-52
2022/05/20 07:01:35;;;;;;;7.22;4.25;;;23.20;63.60;;;23.05;53.81;98068.03;5008985;28;20060;-55
2022/05/20 07:04:03;;;;;;;5.88;4.18;;;23.40;62.60;;;23.17;53.54;98077.06;5008957;28;20407;-51
2022/05/20 07:06:32;;;;;;;5.57;4.75;;;23.60;61.80;;;23.29;53.41;98074.38;5009195;28;20106;-53
2022/05/20 07:09:00;;;;;;;4.97;4.32;;;23.70;62.00;;;23.41;52.93;98068.97;5008904;28;20041;-53
2022/05/20 07:11:28;;;;;;;5.82;3.90;;;23.80;61.60;;;23.52;52.62;98073.59;5009071;28;20054;-53
2022/05/20 07:13:58;;;;;;;8.15;4.68;;;23.90;60.80;;;23.56;52.11;98067.44;5007127;28;20054;-50
2022/05/20 07:16:29;;;;;;;5.63;4.68;;;24.00;60.60;;;23.64;52.43;98076.31;5008684;28;20251;-51
2022/05/20 07:18:57;;;;;;;7.50;4.70;;;24.10;61.00;;;23.71;51.95;98066.16;5007468;28;20248;-53
2022/05/20 07:21:25;;;;;;;4.50;3.75;;;24.10;60.60;;;23.74;51.63;98068.41;5008104;28;20052;-50
2022/05/20 07:23:54;;;;;;;7.10;4.60;;;24.00;60.10;;;23.70;50.64;98068.03;5008745;28;20049;-52
2022/05/20 07:26:22;;;;;;;6.57;3.63;;;24.10;58.50;;;23.75;50.55;98061.94;5008227;28;20370;-51
2022/05/20 07:28:52;;;;;;;5.88;3.80;;;24.10;58.50;;;23.83;50.92;98052.63;5007433;28;20053;-52
2022/05/20 07:31:23;;;;;;;6.15;3.88;;;24.20;59.10;;;23.86;50.76;98044.78;5007788;28;20064;-53
2022/05/20 07:33:53;;;;;;;4.63;4.13;;;24.20;58.80;;;23.88;50.46;98050.81;5008383;28;20060;-53
2022/05/20 07:36:21;;;;;;;4.65;4.20;;;24.20;58.50;;;23.91;50.50;98049.53;5008317;28;20061;-52
2022/05/20 07:38:50;;;;;;;4.40;3.80;;;24.20;58.60;;;23.93;50.26;98047.41;5008794;28;20067;-55
2022/05/20 07:41:19;;;;;;;4.53;3.78;;;24.20;58.30;;;23.97;50.15;98043.97;5008183;28;20255;-54
2022/05/20 07:43:47;;;;;;;4.20;3.80;;;24.20;58.40;;;23.99;50.26;98046.44;5007876;28;20050;-49
2022/05/20 07:46:15;;;;;;;5.47;4.00;;;24.20;58.50;;;24.03;50.42;98038.66;5031042;28;20057;-51
2022/05/20 07:48:43;;;;;;;4.70;4.20;;;24.20;58.60;;;24.07;50.08;98050.69;5042465;28;20118;-51
2022/05/20 07:51:16;;;;;;;5.60;4.47;;;24.30;58.20;;;24.15;49.45;98053.88;5028607;28;20419;-54
2022/05/20 07:54:02;;;;;;;4.68;3.85;;;24.40;57.10;;;24.17;48.63;98057.19;5030208;28;20045;-55
2022/05/20 07:56:41;;;;;;;5.82;4.47;;;24.40;56.20;;;24.23;47.53;98054.56;5046703;28;20059;-53
2022/05/20 07:59:16;;;;;;;7.78;4.15;;;24.40;54.70;;;24.28;48.00;98058.22;5044508;28;20249;-52
2022/05/20 08:01:49;;;;;;;6.38;4.22;;;24.50;55.10;;;24.31;47.12;98046.88;5034947;28;20041;-51
2022/05/20 08:07:16;;;;;;;6.18;4.57;;;24.70;55.20;;;24.49;46.97;98048.59;5032657;28;20052;-52
2022/05/20 08:09:44;;;;;;;5.32;3.90;;;24.70;54.60;;;24.51;46.92;98035.59;5036641;28;20055;-50
2022/05/20 08:12:12;;;;;;;7.20;4.22;;;24.70;53.40;;;24.52;45.94;98033.69;5034690;28;20053;-53
2022/05/20 08:14:48;;;;;;;5.05;4.28;;;24.80;52.80;;;24.56;46.17;98035.72;5037873;28;20260;-55
2022/05/20 08:17:20;;;;;;;6.38;3.95;;;24.80;52.80;;;24.61;46.09;98029.53;5034749;28;20141;-51
2022/05/20 08:19:51;;;;;;;4.15;3.55;;;24.80;52.90;;;24.65;45.54;98030.69;5044517;28;20110;-54
2022/05/20 08:22:23;;;;;;;5.88;4.85;;;24.90;52.10;;;24.66;44.97;98028.78;5046437;28;20053;-55
2022/05/20 08:24:57;;;;;;;5.78;4.53;;;24.90;51.80;;;24.71;44.97;98027.00;5048026;28;20057;-50
2022/05/20 08:27:29;;;;;;;6.88;4.13;;;25.00;51.20;;;24.81;45.09;98022.81;5045570;28;20061;-53
2022/05/20 08:30:08;;;;;;;4.93;4.43;;;25.00;51.90;;;24.86;45.44;98023.75;5045414;28;20047;-54
2022/05/20 08:32:36;;;;;;;5.00;4.43;;;25.00;52.20;;;24.91;45.61;98023.00;5045630;28;20075;-54
2022/05/20 08:35:05;;;;;;;4.75;3.80;;;25.10;52.40;;;25.04;45.64;98014.53;5023953;28;20306;-55
2022/05/20 08:37:38;;;;;;;8.82;4.68;;;25.20;52.50;;;25.10;46.66;98013.53;5023802;28;20067;-54
2022/05/20 08:40:24;;;;;;;5.07;4.38;;;25.30;53.90;;;25.11;46.49;98011.66;5022655;28;20303;-55
2022/05/20 08:42:56;;;;;;;7.80;5.00;;;25.40;53.30;;;25.17;45.07;98015.31;5036368;28;20048;-51
2022/05/20 08:45:30;;;;;;;6.03;4.60;;;25.60;50.50;;;25.22;44.64;98012.66;5035768;28;20061;-56
2022/05/20 08:47:58;;;;;;;4.68;3.80;;;25.60;50.60;;;25.28;44.53;98011.69;5033475;28;20048;-55
2022/05/20 08:50:50;;;;;;;5.80;5.18;;;25.70;50.20;;;25.30;44.17;98001.34;5031770;28;20232;-54
2022/05/20 08:53:35;;;;;;;9.43;4.53;;;25.70;48.80;;;25.34;43.53;97999.81;5032686;28;20050;-56
2022/05/20 08:56:14;;;;;;;4.97;4.38;;;25.60;49.70;;;25.39;43.34;97986.25;5018611;28;20481;-55
2022/05/20 08:59:08;;;;;;;5.90;4.68;;;25.70;49.00;;;25.42;43.72;97985.78;5037009;28;20049;-56
2022/05/20 09:01:50;;;;;;;10.10;6.35;;;25.90;48.10;;;25.54;50.86;97994.66;5053647;28;20067;-54
2022/05/20 09:04:22;;;;;;;5.68;4.70;;;26.10;61.10;;;25.62;48.72;97993.41;5037946;28;20049;-53
2022/05/20 09:07:10;;;;;;;7.95;5.90;;;26.20;56.40;;;25.70;48.92;97990.25;5038168;28;20053;-54
2022/05/20 09:09:57;;;;;;;8.00;5.15;;;26.20;57.40;;;25.72;50.89;97996.28;5038444;28;20057;-55
2022/05/20 09:12:36;;;;;;;7.85;5.28;;;26.30;58.50;;;25.82;50.10;97989.34;5036299;28;20071;-56
2022/05/20 09:18:20;;;;;;;6.78;4.82;;;26.40;54.30;;;25.86;48.09;97980.41;5023201;28;20053;-56
2022/05/20 09:20:52;;;;;;;6.68;5.32;;;26.30;55.50;;;25.86;48.77;97969.50;5027033;28;20058;-52
2022/05/20 09:23:22;;;;;;;4.95;4.53;;;26.20;56.10;;;25.89;47.70;97968.16;5022418;28;20378;-53
2022/05/20 09:26:11;;;;;;;7.32;5.47;;;26.30;54.40;;;25.93;48.40;97972.06;5021470;28;20247;-51
2022/05/20 09:29:05;;;;;;;6.18;5.30;;;26.40;55.30;;;25.96;50.49;97959.81;5021133;28;20042;-51
2022/05/20 09:32:00;;;;;;;6.43;4.88;;;26.40;59.00;;;26.01;50.25;97962.63;5022168;28;20049;-52
2022/05/20 09:34:39;;;;;;;8.43;5.43;;;26.40;58.30;;;26.06;49.90;97962.69;5022223;28;20072;-54
2022/05/20 09:37:19;;;;;;;6.05;5.22;;;26.40;57.80;;;26.05;48.28;97956.41;5021164;28;20054;-53
2022/05/20 09:39:50;;;;;;;8.35;5.00;;;26.50;55.20;;;26.06;47.62;97949.88;5019983;28;20060;-53
2022/05/20 09:42:20;;;;;;;8.32;5.03;;;26.50;54.20;;;26.11;46.71;97957.28;5020516;28;20252;-54
2022/05/20 09:44:59;;;;;;;5.43;4.53;;;26.50;53.80;;;26.13;46.49;97952.41;5021425;28;20042;-55
2022/05/20 09:47:53;;;;;;;8.15;4.45;;;26.50;52.50;;;26.13;46.82;97947.78;5020754;28;20046;-52
2022/05/20 09:50:27;;;;;;;7.05;4.85;;;26.60;52.80;;;26.19;45.08;97947.81;5021999;28;20050;-51
2022/05/20 09:53:23;;;;;;;5.60;4.75;;;26.60;51.00;;;26.18;42.34;97947.00;5020884;28;20140;-53
2022/05/20 09:55:51;;;;;;;6.50;4.78;;;26.80;47.30;;;26.23;44.71;97947.09;5020588;28;20351;-55
2022/05/20 09:58:30;;;;;;;9.98;5.40;;;26.70;50.80;;;26.28;44.54;97941.66;5021715;28;20060;-55
2022/05/20 10:01:15;;;;;;;6.32;5.63;;;26.80;50.30;;;26.31;44.47;97940.34;5020747;28;20052;-55
2022/05/20 10:03:49;;;;;;;8.55;4.90;;;26.90;49.50;;;26.34;44.44;97931.63;5020799;28;20045;-51
2022/05/20 10:06:30;;;;;;;6.82;4.65;;;26.80;49.30;;;26.41;45.04;97923.25;5020710;28;20050;-54
2022/05/20 10:09:09;;;;;;;8.75;4.78;;;26.90;50.50;;;26.47;44.99;97917.59;5021684;28;20041;-55
2022/05/20 10:11:55;;;;;;;5.72;4.78;;;27.00;51.00;;;26.55;44.64;97921.75;5021604;28;20045;-52
2022/05/20 10:14:56;;;;;;;5.97;5.47;;;27.10;50.70;;;26.61;44.89;97928.13;5021219;28;20244;-53
2022/05/20 10:17:42;;;;;;;7.60;5.72;;;27.10;50.90;;;26.64;43.78;97924.88;5021234;28;20046;-53
2022/05/20 10:20:17;;;;;;;6.70;4.95;;;27.20;49.50;;;26.71;44.15;97929.06;5018515;28;20362;-52
2022/05/20 10:23:32;;;;;;;5.93;5.03;;;27.20;50.00;;;26.76;44.33;97925.53;5017319;28;20064;-49
2022/05/20 10:26:47;;;;;;;7.18;5.10;;;27.30;49.60;;;26.82;43.09;97923.69;5022144;28;20064;-52
2022/05/20 10:33:01;;;;;;;6.93;5.55;;;27.50;48.40;;;26.97;43.15;97926.53;5016111;28;20041;-49
2022/05/20 10:36:03;;;;;;;5.57;4.93;;;27.50;48.60;;;27.02;43.25;97923.81;5017695;28;20053;-50
2022/05/20 10:38:49;;;;;;;6.18;5.25;;;27.60;48.30;;;27.05;41.56;97923.31;5014042;28;20052;-54
2022/05/20 10:41:52;;;;;;;6.47;5.40;;;27.70;46.50;;;27.09;42.18;97913.50;5015923;28;20050;-53
2022/05/20 10:48:34;;;;;;;6.18;5.00;;;27.70;47.70;;;27.22;41.44;97900.47;5012877;28;20050;-53
2022/05/20 10:51:28;;;;;;;6.28;4.95;;;27.80;46.40;;;27.30;41.81;97900.84;5010246;28;20364;-54
2022/05/20 10:54:25;;;;;;;6.38;5.20;;;27.80;46.30;;;27.42;41.79;97903.38;5012628;28;20058;-50
2022/05/20 10:57:22;;;;;;;6.20;5.60;;;28.00;47.10;;;27.45;41.32;97896.56;5011535;28;20066;-56
2022/05/20 11:00:22;;;;;;;5.35;4.63;;;28.10;45.70;;;27.52;40.98;97883.47;5009930;28;20073;-53
2022/05/20 11:03:27;;;;;;;6.47;4.80;;;28.20;45.80;;;27.64;41.32;97870.41;5008916;28;20045;-54
2022/05/20 11:06:14;;;;;;;6.00;5.38;;;28.30;44.90;;;27.74;41.15;97875.09;5011945;28;20063;-54
2022/05/20 11:08:47;;;;;;;5.43;4.93;;;28.30;46.40;;;27.85;41.37;97863.13;5009053;28;20050;-55
2022/05/20 11:11:53;;;;;;;7.53;5.60;;;28.50;46.20;;;27.95;41.46;97853.34;5009459;28;20331;-54
2022/05/20 11:14:42;;;;;;;10.52;5.50;;;28.60;46.60;;;28.06;41.69;97839.41;5009591;28;20263;-54
2022/05/20 11:17:25;;;;;;;5.72;5.15;;;28.80;46.20;;;28.07;41.03;97827.38;5009407;28;20046;-54
2022/05/20 11:20:33;;;;;;;6.95;4.85;;;28.60;45.70;;;28.11;40.18;97822.19;5008457;28;20080;-52
2022/05/20 11:23:44;;;;;;;6.82;5.65;;;28.70;43.40;;;28.17;40.35;97815.63;5008828;28;20054;-51